Aviation Digital Data Service (ADDS)

Output produced by METARs form (1310 UTC 10 July 2020)
found at http://www.aviationweather.gov/metar/data/
 
KGLH 101253Z 26005KT 10SM CLR 26/24 A2998 RMK AO2 SLP156 T02610244
KGLH 101153Z 22004KT 10SM CLR 24/23 A2998 RMK AO2 SLP157 70002 T02390228 10239 20228 53014
KGLH 101053Z AUTO 00000KT 10SM CLR 23/22 A2996 RMK AO2 SLP151 T02280222
KGLH 100953Z AUTO 00000KT 10SM CLR 23/22 A2995 RMK AO2 SLP147 T02280222
KGLH 100853Z AUTO 00000KT 10SM CLR 23/22 A2994 RMK AO2 SLP142 T02330222 58001
KGLH 100753Z AUTO 00000KT 10SM CLR 23/22 A2994 RMK AO2 SLP143 T02330222
KGLH 100653Z AUTO 00000KT 10SM CLR 23/23 A2994 RMK AO2 SLP143 T02330228
KGLH 100553Z AUTO 00000KT 10SM CLR 24/23 A2994 RMK AO2 SLP142 T02390228 10250 20233 403330233 51014
KGLH 100453Z AUTO 01003KT 10SM CLR 23/23 A2993 RMK AO2 SLP140 T02330228
KGLH 100353Z AUTO 03003KT 10SM CLR 24/23 A2992 RMK AO2 SLP135 T02390228
KGLH 100253Z AUTO 00000KT 10SM CLR 24/23 A2990 RMK AO2 SLP129 T02440233 53004
KGLH 100153Z AUTO 23003KT 10SM CLR 25/23 A2988 RMK AO2 SLP123 T02500228
KGLH 100053Z AUTO 00000KT 10SM CLR 25/23 A2989 RMK AO2 SLP127 T02500228
KGLH 092353Z AUTO 18006KT 10SM CLR 24/22 A2989 RMK AO2 SLP125 60002 T02390222 10333 20239 58007
KGLH 092253Z 09006KT 10SM FEW034 SCT044 BKN075 24/22 A2989 RMK AO2 PK WND 01037/2213 WSHFT 2207 LTG DSNT N AND NE RAB39E53 SLP128 P0002 T02390222
KGLH 092227Z 02015G25KT 10SM FEW028 SCT036 BKN043 25/21 A2994 RMK AO2 PK WND 01037/2213 WSHFT 2207 LTG DSNT N-E T02500211
KGLH 092153Z 27007KT 10SM CLR 31/25 A2991 RMK AO2 LTG DSNT NW-E SLP133 T03110250
KGLH 092053Z 25011KT 10SM FEW034 FEW046 33/25 A2991 RMK AO2 LTG DSNT N AND NE SLP131 T03330250 55008
KGLH 091953Z 23009KT 10SM FEW029 33/26 A2990 RMK AO2 LTG DSNT N AND NW SLP129 T03280256
KGLH 091853Z 23009G14KT 10SM SCT024 BKN034 32/26 A2991 RMK AO2 SLP133 T03220261
KGLH 091802Z 23006KT 9SM FEW022 SCT027 BKN036 31/26 A2993 RMK AO2 T03110256
KGLH 091753Z 25004KT 9SM FEW022 BKN029 BKN034 31/26 A2993 RMK AO2 SLP139 60000 T03110256 10311 20250 58001
KGLH 091653Z 26004KT 9SM SCT015 BKN025 31/26 A2994 RMK AO2 SLP142 T03060261
KGLH 091621Z VRB03KT 9SM FEW014 OVC023 30/26 A2993 RMK AO2 T03000256
KGLH 091553Z 00000KT 9SM BKN014 OVC022 29/26 A2993 RMK AO2 SLP138 T02940256
KGLH 091517Z 26004KT 8SM OVC015 28/26 A2993 RMK AO2 T02830256
KGLH 091453Z 29004KT 8SM OVC013 28/25 A2993 RMK AO2 LTG DSNT NE SLP141 60000 T02830250 53005
KGLH 091353Z 12004KT 9SM BKN014 27/25 A2993 RMK AO2 LTG DSNT N AND NE SLP140 T02670250
KGLH 091315Z 16005KT 10SM SCT016 25/23 A2993 RMK AO2 LTG DSNT N-E T02500233
KGLH 091253Z 18004KT 10SM BKN017 25/23 A2992 RMK AO2 LTG DSNT N AND NE RAE1156B12E22 TSE1155 SLP137 P0000 T02500233
KGLH 091243Z 19004KT 10SM BKN017 24/23 A2992 RMK AO2 LTG DSNT NE RAE1156B12E22 TSE1155 P0000 T02440233
KGLH 091228Z 21004KT 10SM FEW019 SCT046 25/23 A2992 RMK AO2 LTG DSNT N-SE RAE1156B12E22 TSE1155 P0000 T02500233
KGLH 091215Z 20004KT 10SM VCTS -RA SCT023 BKN039 BKN055 25/23 A2992 RMK AO2 LTG DSNT SE RAE1156B12 TSE1155 P0000 T02500233
KGLH 091207Z 00000KT 10SM VCTS BKN021 BKN031 OVC046 24/23 A2991 RMK AO2 LTG DSNT SE RAE1156 TSE1155 P0000 T02440233
KGLH 091201Z 18003KT 10SM SCT023 BKN030 OVC042 24/23 A2992 RMK AO2 LTG DSNT SE AND NW RAE1156 TSE1155 P0000 T02440228
KGLH 091153Z 7SM -TSRA FEW027 BKN034 OVC050 24/23 A2992 RMK AO2 LTG DSNT E AND SE AND NW RAB03 TSB17E32B34 SLP136 P0066 60066 70077 T02440233 10261 20244 51007
KGLH 091140Z AUTO VRB03KT 3/4SM +TSRA BR BKN034 OVC048 24/23 A2992 RMK AO2 LTG DSNT E AND SE RAB03 TSB17E32B34 P0063 T02440233
KGLH 091133Z AUTO 26008KT 3/4SM +RA BR OVC030 24/23 A2993 RMK AO2 LTG DSNT E AND SE RAB03 TSB17E32 P0056 T02440228
KGLH 091125Z AUTO 27011KT 1/2SM +TSRA FG BKN026 BKN036 OVC055 24/23 A2993 RMK AO2 LTG DSNT E AND SE RAB03 TSB17 P0043 T02440233
KGLH 091117Z AUTO 27011KT 3/4SM +TSRA BR SCT024 BKN036 OVC055 24/23 A2992 RMK AO2 LTG DSNT E AND SE RAB03 TSB17 P0028 T02440233
KGLH 091106Z AUTO 22012G19KT 1 1/2SM VCTS +RA BR SCT036 BKN047 OVC110 25/23 A2991 RMK AO2 LTG DSNT E RAB03 P0007 T02500233
KGLH 091053Z AUTO 22007KT 10SM VCTS SCT036 SCT050 BKN110 25/23 A2991 RMK AO2 LTG DSNT E RAB34E43 SLP132 P0000 T02500233
KGLH 091050Z AUTO 21008KT 10SM VCTS FEW038 SCT050 BKN110 25/23 A2991 RMK AO2 RAB34E43 P0000
KGLH 090953Z AUTO 22004KT 10SM FEW029 SCT038 SCT055 26/24 A2990 RMK AO2 LTG DSNT W SLP128 T02560239
KGLH 090853Z AUTO 14003KT 7SM FEW042 SCT055 25/24 A2988 RMK AO2 LTG DSNT W SLP120 T02500239 56006
KGLH 090753Z AUTO 18003KT 8SM FEW060 24/24 A2988 RMK AO2 SLP121 T02440239
KGLH 090653Z AUTO 16004KT 7SM CLR 25/24 A2988 RMK AO2 SLP122 T02500239
KGLH 090553Z AUTO 16003KT 6SM BR CLR 24/24 A2989 RMK AO2 SLP127 T02440239 10294 20244 403170233 58002
KGLH 090453Z AUTO 16005KT 8SM CLR 26/24 A2990 RMK AO2 SLP131 T02560244
KGLH 090353Z AUTO 17005KT 10SM CLR 26/24 A2990 RMK AO2 SLP131 T02560244
KGLH 090253Z AUTO 16004KT 10SM CLR 26/24 A2990 RMK AO2 SLP130 T02610244 53009
KGLH 090153Z AUTO 20004KT 10SM CLR 27/24 A2988 RMK AO2 SLP123 T02670244
KGLH 090053Z AUTO 22005KT 10SM CLR 28/24 A2987 RMK AO2 SLP120 T02780239
KGLH 082353Z AUTO 20009KT 10SM FEW031 29/24 A2987 RMK AO2 WSHFT 2303 SLP121 T02940244 10317 20283 56006
KGLH 082323Z 18010KT 10SM FEW027 SCT070 30/25 A2987 RMK AO2 WSHFT 2303 T03000250
KGLH 082253Z 22007KT 10SM SCT055 SCT070 31/24 A2988 RMK AO2 LTG DSNT S SLP121 T03110239
KGLH 082153Z 25004KT 10SM CLR 32/24 A2988 RMK AO2 LTG DSNT SW SLP122 T03170239
KGLH 082125Z VRB04KT 10SM FEW027 SCT033 31/24 A2988 RMK AO2 T03110244
KGLH 082115Z VRB04KT 10SM BKN029 31/24 A2988 RMK AO2 T03110244
KGLH 082053Z 18005KT 10SM SCT029 31/25 A2989 RMK AO2 SLP126 T03110250 58018
KGLH 081953Z 00000KT 10SM SCT025 SCT080 31/24 A2991 RMK AO2 SLP131 T03060239
KGLH 081853Z 22006KT 10SM FEW022 SCT027 30/24 A2993 RMK AO2 SLP140 T03000244
KGLH 081845Z VRB03KT 10SM FEW022 SCT027 29/24 A2994 RMK AO2 T02940239
KGLH 081800Z 34004KT 10SM SCT017 BKN025 28/23 A2994 RMK AO2 T02830233
KGLH 081753Z 00000KT 10SM SCT017 29/24 A2994 RMK AO2 SLP145 60011 T02890239 10294 20233 58010
KGLH 081724Z VRB03KT 10SM FEW009 SCT014 SCT019 28/24 A2995 RMK AO2 T02780239
KGLH 081717Z 30004KT 10SM FEW009 BKN018 28/24 A2995 RMK AO2 T02780239
KGLH 081653Z 26007KT 10SM BKN008 BKN017 27/24 A2997 RMK AO2 CIG 007V013 SLP155 T02720239
KGLH 081651Z 26007KT 10SM BKN008 OVC017 27/24 A2997 RMK AO2 CIG 007V013
KGLH 081644Z 25005KT 10SM OVC010 27/24 A2998 RMK AO2 CIG 006V013 T02670239
KGLH 081553Z 22007KT 10SM OVC005 24/23 A2998 RMK AO2 SLP155 T02440233
KGLH 081453Z 19007KT 10SM BKN007 OVC010 24/23 A2998 RMK AO2 LTG DSNT S RAE08 CIG 005V009 SLP158 P0000 60011 T02440228 53009
KGLH 081414Z 00000KT 10SM BKN006 BKN031 OVC085 24/23 A2997 RMK AO2 LTG DSNT S RAE08 P0000 T02440233
KGLH 081353Z 14003KT 6SM -RA BR SCT005 BKN050 OVC110 24/23 A2996 RMK AO2 LTG DSNT SE SLP151 P0004 T02390228
KGLH 081344Z 14003KT 9SM -RA SCT007 BKN065 OVC110 24/23 A2996 RMK AO2 LTG DSNT E-SW P0003 T02390228
KGLH 081303Z 16003KT 6SM -RA BR BKN006 OVC060 24/23 A2996 RMK AO2 LTG DSNT SE AND S P0000 T02390228
KGLH 081253Z 16003KT 5SM -RA BR FEW008 SCT025 OVC060 24/23 A2996 RMK AO2 LTG DSNT SE AND S SLP149 P0007 T02390228
KGLH 081250Z 16004KT 5SM -RA BR FEW021 SCT039 OVC055 24/23 A2996 RMK AO2 LTG DSNT SE AND S P0007
KGLH 081238Z 16004KT 3SM -RA BR SCT015 BKN023 OVC040 24/23 A2996 RMK AO2 LTG DSNT SE-SW P0006 T02390228
KGLH 081233Z 15004KT 2SM VCTS -RA BR BKN015 BKN023 OVC040 24/23 A2996 RMK AO2 LTG DSNT SE-W P0005 T02390228
KGLH 081203Z 11003KT 5SM VCTS -RA BR SCT018 OVC024 24/23 A2996 RMK AO2 LTG DSNT S-W P0000 T02390228
KGLH 081153Z 08005KT 2 1/2SM VCTS RA BR SCT016 BKN024 OVC033 24/23 A2996 RMK AO2 LTG DSNT S-W RAB09 SLP149 P0019 60072 70072 T02390228 10250 20239 53001
KGLH 081150Z 09004KT 2 1/2SM VCTS RA BR FEW013 BKN024 OVC033 24/23 A2995 RMK AO2 LTG DSNT S-W RAB09 P0018
KGLH 081120Z AUTO 06005KT 3SM -RA BR FEW011 OVC019 24/23 A2995 RMK AO2 LTG DSNT SW RAB09 P0010 T02390228
KGLH 081110Z AUTO 00000KT 1 3/4SM RA BR FEW009 OVC019 24/23 A2996 RMK AO2 LTG DSNT SW RAB09 P0007 T02390228
KGLH 081053Z AUTO 09006KT 10SM FEW009 BKN020 24/23 A2995 RMK AO2 LTG DSNT SW AND W SLP148 T02390228
KGLH 081043Z AUTO 08004KT 10SM BKN020 BKN050 BKN090 24/23 A2996 RMK AO2 LTG DSNT SW T02390228
KGLH 081027Z AUTO 08003KT 10SM FEW021 SCT038 BKN055 24/23 A2995 RMK AO2 LTG DSNT SW T02390233
KGLH 080953Z AUTO 08003KT 10SM OVC022 24/23 A2996 RMK AO2 RAE0854 SLP150 P0000 T02440228
KGLH 080853Z AUTO 17003KT 9SM -RA BKN026 OVC045 24/23 A2995 RMK AO2 RAB28 SLP146 P0033 60053 T02390228 55005
KGLH 080847Z AUTO 16006KT 2SM -RA BR FEW022 BKN027 OVC042 24/23 A2994 RMK AO2 RAB28 P0033
KGLH 080839Z AUTO 16008KT 3/4SM +RA BR SCT020 BKN027 OVC065 24/23 A2995 RMK AO2 RAB28 P0030 T02390233
KGLH 080834Z AUTO 20007KT 2 1/2SM -RA BR FEW022 BKN030 OVC070 24/23 A2995 RMK AO2 RAB28 P0011 T02440233
KGLH 080753Z AUTO 17005KT 10SM BKN040 OVC065 24/23 A2995 RMK AO2 RAB02E52 SLP145 P0020 T02440228
KGLH 080744Z AUTO 15004KT 3SM -RA BR BKN044 OVC075 24/23 A2995 RMK AO2 RAB02 P0020 T02440233
KGLH 080730Z AUTO 20005KT 1 3/4SM +RA BR BKN046 OVC075 24/23 A2995 RMK AO2 RAB02 P0012 T02440233
KGLH 080653Z AUTO 21004KT 10SM OVC085 25/23 A2996 RMK AO2 SLP149 T02500228
KGLH 080553Z AUTO 19005KT 10SM BKN075 OVC095 24/22 A2996 RMK AO2 SLP151 T02440222 10272 20239 403110228 50003
KGLH 080453Z AUTO 19005KT 10SM FEW095 24/22 A2997 RMK AO2 SLP153 T02390222
KGLH 080353Z AUTO 18005KT 10SM CLR 24/22 A2996 RMK AO2 SLP150 T02440222
KGLH 080253Z AUTO 16006KT 10SM FEW120 25/22 A2995 RMK AO2 LTG DSNT NW SLP148 T02500222 53000
KGLH 080153Z AUTO 15004KT 10SM CLR 26/24 A2995 RMK AO2 SLP147 T02560239
KGLH 080053Z AUTO 13005KT 10SM FEW090 FEW110 27/24 A2994 RMK AO2 SLP143 T02670239
KGLH 072353Z AUTO 14004KT 10SM CLR 27/24 A2995 RMK AO2 SLP147 T02720239 10300 20267 55005
KGLH 072253Z 13005KT 10SM CLR 27/24 A2995 RMK AO2 SLP145 T02720244
KGLH 072153Z 13004KT 10SM CLR 28/24 A2996 RMK AO2 SLP149 T02780239
KGLH 072125Z 12003KT 10SM FEW008 27/24 A2996 RMK AO2 T02720239
KGLH 072053Z 10006KT 10SM FEW012 27/24 A2997 RMK AO2 SLP153 T02720244 56012
KGLH 071953Z 03003KT 10SM FEW055 30/22 A2998 RMK AO2 LTG DSNT N-SE SLP157 T03000222
KGLH 071925Z 34003KT 10SM SCT075 30/23 A2999 RMK AO2 LTG DSNT N-E T03000233
KGLH 071853Z 31009KT 10SM VCTS FEW021 BKN075 BKN090 28/23 A2999 RMK AO2 LTG DSNT NE-SE SLP160 T02780233
KGLH 071845Z 30008KT 10SM FEW017 SCT028 BKN075 28/23 A3000 RMK AO2 LTG DSNT NE-SE T02780233
KGLH 071825Z 28013G18KT 10SM VCTS FEW016 BKN034 BKN060 28/24 A3001 RMK AO2 T02830239
KGLH 071811Z 31005KT 10SM SCT032 SCT044 BKN060 29/24 A3000 RMK AO2 LTG DSNT SE AND W AND NW T02940239
KGLH 071753Z 27005KT 10SM VCTS FEW024 BKN044 BKN060 29/23 A3000 RMK AO2 LTG DSNT NW SLP165 T02940233 10311 20239 56006
KGLH 071751Z 26003KT 10SM VCTS FEW024 SCT042 BKN060 29/23 A3000 RMK AO2 LTG DSNT W AND NW
KGLH 071653Z 24004KT 10SM SCT018 BKN032 29/23 A3001 RMK AO2 SLP168 T02940228
KGLH 071631Z 33003KT 10SM BKN016 BKN031 29/24 A3002 RMK AO2 T02940244
KGLH 071553Z 29004KT 10SM SCT015 BKN037 BKN043 28/24 A3002 RMK AO2 SLP171 T02830239
KGLH 071550Z 29004KT 10SM BKN015 BKN037 28/24 A3002 RMK AO2
KGLH 071453Z 26006KT 10SM BKN120 28/24 A3002 RMK AO2 SLP169 T02780239 51013
KGLH 071353Z 27004KT 10SM CLR 27/23 A3001 RMK AO2 SLP166 T02670233
KGLH 101120Z 1012/1112 31008KT P6SM SCT250